Time;durP1;ratioP1;P1;durP2;ratioP2;P2;SDS_P1;SDS_P2;PMS_P1;PMS_P2;Temp;Humidity;BMP_temperature;BMP_pressure;BME280_temperature;BME280_humidity;BME280_pressure;Samples;Min_cycle;Max_cycle;Signal;HPM_P1;HPM_P2
2021/11/16 00:00:41;;;;;;;13.85;9.82;;;;;;;;;;5016071;28;20223;-82
2021/11/16 00:03:09;;;;;;;13.65;10.90;;;;;;;;;;5015666;28;20198;-82
2021/11/16 00:05:38;;;;;;;13.40;9.90;;;;;;;;;;5015409;28;20693;-82
2021/11/16 00:08:07;;;;;;;19.77;12.85;;;;;;;;;;5015327;28;20187;-82
2021/11/16 00:10:36;;;;;;;16.20;13.35;;;;;;;;;;5015410;28;20233;-82
2021/11/16 00:13:10;;;;;;;16.50;11.45;;;;;;;;;;5015027;28;20267;-82
2021/11/16 00:15:40;;;;;;;15.73;11.50;;;;;;;;;;5015000;28;20207;-83
2021/11/16 00:18:08;;;;;;;13.40;9.70;;;;;;;;;;5014813;28;20636;-82
2021/11/16 00:20:39;;;;;;;8.45;6.78;;;;;;;;;;5014386;28;20231;-82
2021/11/16 00:23:14;;;;;;;9.90;7.78;;;;;;;;;;5015040;28;20217;-82
2021/11/16 00:25:42;;;;;;;8.43;7.40;;;;;;;;;;5014777;28;20222;-82
2021/11/16 00:28:09;;;;;;;12.18;10.95;;;;;;;;;;5015403;28;20191;-82
2021/11/16 00:30:40;;;;;;;12.35;10.68;;;;;;;;;;5014851;28;20246;-82
2021/11/16 00:33:08;;;;;;;16.73;12.10;;;;;;;;;;5018474;28;20191;-82
2021/11/16 00:35:38;;;;;;;10.30;8.27;;;;;;;;;;5019311;28;20203;-82
2021/11/16 00:38:07;;;;;;;11.57;9.25;;;;;;;;;;5018611;28;20198;-81
2021/11/16 00:40:35;;;;;;;11.50;8.93;;;;;;;;;;5018977;28;20223;-82
2021/11/16 00:43:04;;;;;;;13.73;9.95;;;;;;;;;;5018810;28;20188;-81
2021/11/16 00:45:32;;;;;;;14.60;10.20;;;;;;;;;;5018785;28;20214;-81
2021/11/16 00:48:01;;;;;;;12.73;9.23;;;;;;;;;;5019411;28;20191;-81
2021/11/16 00:50:29;;;;;;;11.00;9.45;;;;;;;;;;5019390;28;20307;-81
2021/11/16 00:52:56;;;;;;;11.73;9.63;;;;;;;;;;5018564;28;20198;-81
2021/11/16 00:55:24;;;;;;;10.13;7.45;;;;;;;;;;5018481;28;20197;-80
2021/11/16 00:57:51;;;;;;;8.30;7.30;;;;;;;;;;5018369;28;20213;-80
2021/11/16 01:00:19;;;;;;;7.30;6.03;;;;;;;;;;5018055;28;20226;-81
2021/11/16 01:02:48;;;;;;;10.25;8.75;;;;;;;;;;5018341;28;20196;-81
2021/11/16 01:05:17;;;;;;;10.27;7.93;;;;;;;;;;5018216;28;20238;-81
2021/11/16 01:07:45;;;;;;;11.23;8.30;;;;;;;;;;5018758;28;20634;-81
2021/11/16 01:10:16;;;;;;;11.80;8.65;;;;;;;;;;5018380;28;20223;-80
2021/11/16 01:12:45;;;;;;;14.48;11.32;;;;;;;;;;5018444;28;20199;-81
2021/11/16 01:15:15;;;;;;;14.00;11.00;;;;;;;;;;5018511;28;20187;-81
2021/11/16 01:17:43;;;;;;;13.05;9.35;;;;;;;;;;5018069;28;20210;-81
2021/11/16 01:20:13;;;;;;;12.27;9.70;;;;;;;;;;5017237;28;20243;-81
2021/11/16 01:22:43;;;;;;;12.80;10.27;;;;;;;;;;5017744;28;20188;-81
2021/11/16 01:25:12;;;;;;;12.15;9.43;;;;;;;;;;5017821;28;20211;-81
2021/11/16 01:27:41;;;;;;;14.02;11.05;;;;;;;;;;5017894;28;20184;-81
2021/11/16 01:30:12;;;;;;;15.85;10.40;;;;;;;;;;5017898;28;20219;-80
2021/11/16 01:32:44;;;;;;;12.68;9.60;;;;;;;;;;5017674;28;20199;-81
2021/11/16 01:35:13;;;;;;;12.95;10.20;;;;;;;;;;5017937;28;20274;-80
2021/11/16 01:37:43;;;;;;;17.38;11.10;;;;;;;;;;5018021;28;20294;-80
2021/11/16 01:40:16;;;;;;;13.70;9.48;;;;;;;;;;5017344;28;20234;-81
2021/11/16 01:42:44;;;;;;;11.93;9.15;;;;;;;;;;5016812;28;20285;-80
2021/11/16 01:45:12;;;;;;;15.38;11.60;;;;;;;;;;5017316;28;20225;-80
2021/11/16 01:47:40;;;;;;;16.52;12.27;;;;;;;;;;5017400;28;20183;-81
2021/11/16 01:50:09;;;;;;;13.20;10.45;;;;;;;;;;5017569;28;20226;-81
2021/11/16 01:52:37;;;;;;;13.38;10.25;;;;;;;;;;5017532;28;20199;-81
2021/11/16 01:55:09;;;;;;;12.82;8.18;;;;;;;;;;5017397;28;20206;-81
2021/11/16 01:57:37;;;;;;;17.63;11.05;;;;;;;;;;5017505;28;20203;-81
2021/11/16 02:00:06;;;;;;;13.50;9.50;;;;;;;;;;5017310;28;20713;-81
2021/11/16 02:02:34;;;;;;;14.13;10.90;;;;;;;;;;5017202;28;20191;-81
2021/11/16 02:05:01;;;;;;;13.45;9.50;;;;;;;;;;5017415;28;20696;-81
2021/11/16 02:07:29;;;;;;;14.00;11.23;;;;;;;;;;5017244;28;20198;-80
2021/11/16 02:09:56;;;;;;;12.95;9.07;;;;;;;;;;5017028;28;20234;-81
2021/11/16 02:12:25;;;;;;;12.32;9.02;;;;;;;;;;5017171;28;20187;-81
2021/11/16 02:14:53;;;;;;;12.25;10.10;;;;;;;;;;5017093;28;20190;-81
2021/11/16 02:17:20;;;;;;;10.23;8.82;;;;;;;;;;5017362;28;20201;-81
2021/11/16 02:19:48;;;;;;;20.48;12.18;;;;;;;;;;5017046;28;20298;-81
2021/11/16 02:22:18;;;;;;;13.27;9.63;;;;;;;;;;5017170;28;20260;-81
2021/11/16 02:24:47;;;;;;;12.90;9.45;;;;;;;;;;5017062;28;20667;-81
2021/11/16 02:27:14;;;;;;;11.48;9.00;;;;;;;;;;5017242;28;20195;-81
2021/11/16 02:29:43;;;;;;;10.93;9.63;;;;;;;;;;5017117;28;20608;-81
2021/11/16 02:32:10;;;;;;;15.70;9.27;;;;;;;;;;5016457;28;20207;-81
2021/11/16 02:34:38;;;;;;;15.32;10.57;;;;;;;;;;5016482;28;20203;-81
2021/11/16 02:37:06;;;;;;;14.30;10.55;;;;;;;;;;5016870;28;20213;-81
2021/11/16 02:39:35;;;;;;;12.63;9.07;;;;;;;;;;5016584;28;20230;-81
2021/11/16 02:42:04;;;;;;;17.02;11.75;;;;;;;;;;5015850;28;20198;-81
2021/11/16 02:44:33;;;;;;;13.68;10.25;;;;;;;;;;5016330;28;20199;-81
2021/11/16 02:47:00;;;;;;;13.70;9.50;;;;;;;;;;5016663;28;20210;-81
2021/11/16 02:49:28;;;;;;;12.65;9.05;;;;;;;;;;5016848;28;20230;-81
2021/11/16 02:51:55;;;;;;;14.80;11.13;;;;;;;;;;5015950;28;20210;-81
2021/11/16 02:54:23;;;;;;;12.48;9.65;;;;;;;;;;5015783;28;20187;-81
2021/11/16 02:56:52;;;;;;;11.32;8.50;;;;;;;;;;5016543;28;20183;-81
2021/11/16 02:59:19;;;;;;;13.25;9.98;;;;;;;;;;5016066;28;20709;-81
2021/11/16 03:01:47;;;;;;;14.88;10.32;;;;;;;;;;5017141;28;20206;-81
2021/11/16 03:04:21;;;;;;;14.00;10.00;;;;;;;;;;5016127;28;20576;-81
2021/11/16 03:06:49;;;;;;;15.27;9.63;;;;;;;;;;5016288;28;20217;-82
2021/11/16 03:09:16;;;;;;;11.10;8.40;;;;;;;;;;5015925;28;20222;-81
2021/11/16 03:11:44;;;;;;;9.85;7.78;;;;;;;;;;5016467;28;20187;-82
2021/11/16 03:14:13;;;;;;;8.82;7.05;;;;;;;;;;5015922;28;20265;-81
2021/11/16 03:16:40;;;;;;;7.95;7.15;;;;;;;;;;5016470;28;20677;-81
2021/11/16 03:19:08;;;;;;;8.55;6.65;;;;;;;;;;5016423;28;20783;-82
2021/11/16 03:21:41;;;;;;;12.55;9.13;;;;;;;;;;5016248;28;20209;-81
2021/11/16 03:24:08;;;;;;;8.70;6.93;;;;;;;;;;5016167;28;20191;-81
2021/11/16 03:26:37;;;;;;;10.30;8.75;;;;;;;;;;5014835;28;20697;-81
2021/11/16 03:29:11;;;;;;;15.13;11.15;;;;;;;;;;5015763;28;20222;-81
2021/11/16 03:31:48;;;;;;;13.70;9.45;;;;;;;;;;5015880;28;20628;-81
2021/11/16 03:34:16;;;;;;;9.38;7.55;;;;;;;;;;5015982;28;20190;-81
2021/11/16 03:36:44;;;;;;;14.80;10.32;;;;;;;;;;5015670;28;20214;-80
2021/11/16 03:39:12;;;;;;;15.55;10.80;;;;;;;;;;5016170;28;20318;-81
2021/11/16 03:41:41;;;;;;;14.40;9.15;;;;;;;;;;5024620;28;20201;-81
2021/11/16 03:44:08;;;;;;;10.00;8.35;;;;;;;;;;5036081;28;20230;-82
2021/11/16 03:46:39;;;;;;;10.52;8.52;;;;;;;;;;5035672;28;20228;-81
2021/11/16 03:49:10;;;;;;;10.55;8.30;;;;;;;;;;5034515;28;20229;-81
2021/11/16 03:51:37;;;;;;;7.15;6.35;;;;;;;;;;5034574;28;20199;-81
2021/11/16 03:54:05;;;;;;;12.52;9.15;;;;;;;;;;5035112;28;20189;-81
2021/11/16 03:56:32;;;;;;;12.35;9.57;;;;;;;;;;5035618;28;20193;-82
2021/11/16 03:59:00;;;;;;;9.77;8.43;;;;;;;;;;5036018;28;20734;-82
2021/11/16 04:01:28;;;;;;;10.40;7.32;;;;;;;;;;5035236;28;20563;-82
2021/11/16 04:03:56;;;;;;;11.32;8.13;;;;;;;;;;5035786;28;20606;-82
2021/11/16 04:06:25;;;;;;;11.60;8.90;;;;;;;;;;5035409;28;20269;-82
2021/11/16 04:08:52;;;;;;;10.68;8.38;;;;;;;;;;5035303;28;20317;-82
2021/11/16 04:11:20;;;;;;;7.63;6.60;;;;;;;;;;5035643;28;20202;-82
2021/11/16 04:13:48;;;;;;;8.90;7.30;;;;;;;;;;5035998;28;20708;-81
2021/11/16 04:16:16;;;;;;;12.30;9.40;;;;;;;;;;5035476;28;20205;-82
2021/11/16 04:18:44;;;;;;;9.40;7.47;;;;;;;;;;5034927;28;20229;-82
2021/11/16 04:21:12;;;;;;;8.35;6.55;;;;;;;;;;5036128;28;20187;-81
2021/11/16 04:23:41;;;;;;;6.82;5.72;;;;;;;;;;5035564;28;20656;-82
2021/11/16 04:26:09;;;;;;;6.80;5.95;;;;;;;;;;5035709;28;20190;-82
2021/11/16 04:28:37;;;;;;;7.30;6.38;;;;;;;;;;5035459;28;20660;-81
2021/11/16 04:31:05;;;;;;;8.05;6.07;;;;;;;;;;5035882;28;20230;-80
2021/11/16 04:33:32;;;;;;;9.00;7.22;;;;;;;;;;5034923;28;20186;-83
2021/11/16 04:36:00;;;;;;;9.07;6.95;;;;;;;;;;5036077;28;20198;-82
2021/11/16 04:38:28;;;;;;;10.73;8.60;;;;;;;;;;5036258;28;20729;-81
2021/11/16 04:41:00;;;;;;;8.30;6.05;;;;;;;;;;5034994;28;20562;-81
2021/11/16 04:43:29;;;;;;;9.18;7.50;;;;;;;;;;5035562;28;20550;-81
2021/11/16 04:46:03;;;;;;;8.07;6.15;;;;;;;;;;5035073;28;20199;-81
2021/11/16 04:48:48;;;;;;;9.35;6.85;;;;;;;;;;5035840;28;20309;-82
2021/11/16 04:51:46;;;;;;;12.13;9.88;;;;;;;;;;5035622;28;20191;-82
2021/11/16 04:54:30;;;;;;;10.32;7.90;;;;;;;;;;5035426;28;20186;-82
2021/11/16 04:59:51;;;;;;;12.40;9.38;;;;;;;;;;5036024;28;20224;-81
2021/11/16 05:02:37;;;;;;;10.27;8.02;;;;;;;;;;5036050;28;20245;-81
2021/11/16 05:05:08;;;;;;;8.32;6.72;;;;;;;;;;5035883;28;20198;-82
2021/11/16 05:07:36;;;;;;;6.53;5.80;;;;;;;;;;5035320;28;20734;-81
2021/11/16 05:10:08;;;;;;;6.88;5.60;;;;;;;;;;5035710;28;20665;-81
2021/11/16 05:12:37;;;;;;;5.20;4.65;;;;;;;;;;5034550;28;20206;-81
2021/11/16 05:15:08;;;;;;;5.03;4.53;;;;;;;;;;5035210;28;20216;-81
2021/11/16 05:17:36;;;;;;;8.85;7.82;;;;;;;;;;5037850;28;20641;-81
2021/11/16 05:20:06;;;;;;;12.65;10.48;;;;;;;;;;5039017;28;20241;-81
2021/11/16 05:22:33;;;;;;;13.48;10.02;;;;;;;;;;5039690;28;20202;-81
2021/11/16 05:25:01;;;;;;;12.73;10.70;;;;;;;;;;5038746;28;20198;-81
2021/11/16 05:27:29;;;;;;;9.63;7.85;;;;;;;;;;5038704;28;20309;-81
2021/11/16 05:29:58;;;;;;;6.65;5.95;;;;;;;;;;5039079;28;20225;-81
2021/11/16 05:32:25;;;;;;;7.38;6.20;;;;;;;;;;5038601;28;20191;-81
2021/11/16 05:34:53;;;;;;;8.85;7.82;;;;;;;;;;5038607;28;20202;-81
2021/11/16 05:37:20;;;;;;;8.65;6.43;;;;;;;;;;5038609;28;20191;-81
2021/11/16 05:39:47;;;;;;;8.18;6.63;;;;;;;;;;5038281;28;20743;-82
2021/11/16 05:42:18;;;;;;;9.43;8.40;;;;;;;;;;5039996;28;20206;-81
2021/11/16 05:44:46;;;;;;;9.50;8.50;;;;;;;;;;5040337;28;20187;-82
2021/11/16 05:47:15;;;;;;;8.90;7.28;;;;;;;;;;5040969;28;20596;-82
2021/11/16 05:49:42;;;;;;;5.00;4.57;;;;;;;;;;5037383;28;20305;-81
2021/11/16 05:52:10;;;;;;;7.30;6.55;;;;;;;;;;5036843;28;20213;-83
2021/11/16 05:54:38;;;;;;;6.50;5.65;;;;;;;;;;5037177;28;20209;-82
2021/11/16 05:57:08;;;;;;;7.97;6.35;;;;;;;;;;5037794;28;20195;-81
2021/11/16 05:59:36;;;;;;;14.82;10.43;;;;;;;;;;5036922;28;20226;-81
2021/11/16 06:02:06;;;;;;;11.32;8.20;;;;;;;;;;5037243;28;20182;-82
2021/11/16 06:04:35;;;;;;;10.50;9.40;;;;;;;;;;5037290;28;20249;-82
2021/11/16 06:07:04;;;;;;;13.35;9.60;;;;;;;;;;5037308;28;20282;-83
2021/11/16 06:09:32;;;;;;;10.57;7.45;;;;;;;;;;5036626;28;20618;-82
2021/11/16 06:12:01;;;;;;;11.40;8.75;;;;;;;;;;5037056;28;20182;-82
2021/11/16 06:14:29;;;;;;;12.18;9.95;;;;;;;;;;5036975;28;20613;-82
2021/11/16 06:16:57;;;;;;;17.98;12.27;;;;;;;;;;5036678;28;20187;-82
2021/11/16 06:19:25;;;;;;;12.10;9.77;;;;;;;;;;5036544;28;20230;-82
2021/11/16 06:21:54;;;;;;;10.43;7.75;;;;;;;;;;5036362;28;20199;-82
2021/11/16 06:24:22;;;;;;;7.18;6.18;;;;;;;;;;5036847;28;20191;-82
2021/11/16 06:26:50;;;;;;;9.98;8.05;;;;;;;;;;5036854;28;20191;-82
2021/11/16 06:29:17;;;;;;;8.57;7.22;;;;;;;;;;5035414;28;20376;-81
2021/11/16 06:31:45;;;;;;;14.50;12.00;;;;;;;;;;5036637;28;20717;-82
2021/11/16 06:34:13;;;;;;;9.43;8.43;;;;;;;;;;5036348;28;20677;-81
2021/11/16 06:36:43;;;;;;;8.93;6.47;;;;;;;;;;5037306;28;20203;-82
2021/11/16 06:39:15;;;;;;;10.65;8.82;;;;;;;;;;5036930;28;20725;-81
2021/11/16 06:41:43;;;;;;;9.73;7.50;;;;;;;;;;5036624;28;20198;-82
2021/11/16 06:44:13;;;;;;;10.50;8.20;;;;;;;;;;5036848;28;20186;-81
2021/11/16 06:46:42;;;;;;;8.20;6.90;;;;;;;;;;5036615;28;20175;-81
2021/11/16 06:49:11;;;;;;;6.72;5.75;;;;;;;;;;5036395;28;20233;-82
2021/11/16 06:51:41;;;;;;;7.07;6.18;;;;;;;;;;5036634;28;20202;-81
2021/11/16 06:54:13;;;;;;;7.20;5.95;;;;;;;;;;5036678;28;20752;-81
2021/11/16 06:56:42;;;;;;;9.40;6.50;;;;;;;;;;5036325;28;20562;-81
2021/11/16 06:59:10;;;;;;;6.07;5.47;;;;;;;;;;5036264;28;20225;-81
2021/11/16 07:01:38;;;;;;;12.82;9.27;;;;;;;;;;5036460;28;20193;-81
2021/11/16 07:04:09;;;;;;;14.32;10.27;;;;;;;;;;5035989;28;20206;-81
2021/11/16 07:06:38;;;;;;;13.18;10.15;;;;;;;;;;5036160;28;20661;-81
2021/11/16 07:09:07;;;;;;;10.93;9.02;;;;;;;;;;5038781;28;20229;-82
2021/11/16 07:11:45;;;;;;;11.45;9.55;;;;;;;;;;5035983;28;20190;-82
2021/11/16 07:14:14;;;;;;;9.70;8.02;;;;;;;;;;5036416;28;20281;-82
2021/11/16 07:16:44;;;;;;;8.35;7.20;;;;;;;;;;5035993;28;20179;-81
2021/11/16 07:19:13;;;;;;;9.27;7.75;;;;;;;;;;5035795;28;20321;-82
2021/11/16 07:21:51;;;;;;;8.10;7.32;;;;;;;;;;5036323;28;20202;-82
2021/11/16 07:24:24;;;;;;;9.95;8.35;;;;;;;;;;5036455;28;20213;-81
2021/11/16 07:26:59;;;;;;;11.10;8.75;;;;;;;;;;5036260;28;20301;-81
2021/11/16 07:29:38;;;;;;;12.30;9.75;;;;;;;;;;5035628;28;20253;-82
2021/11/16 07:32:07;;;;;;;12.32;9.57;;;;;;;;;;5036098;28;20240;-82
2021/11/16 07:34:37;;;;;;;10.18;7.80;;;;;;;;;;5036054;28;20226;-81
2021/11/16 07:37:09;;;;;;;10.38;7.65;;;;;;;;;;5035888;28;20249;-82
2021/11/16 07:39:47;;;;;;;9.60;8.70;;;;;;;;;;5035875;28;20222;-82
2021/11/16 07:42:17;;;;;;;12.35;9.70;;;;;;;;;;5035526;28;20189;-82
2021/11/16 07:45:10;;;;;;;10.65;8.95;;;;;;;;;;5036057;28;20631;-82
2021/11/16 07:47:47;;;;;;;13.43;9.20;;;;;;;;;;5035269;28;20202;-82
2021/11/16 07:50:21;;;;;;;9.85;8.27;;;;;;;;;;5035619;28;20232;-82
2021/11/16 07:52:49;;;;;;;8.30;6.35;;;;;;;;;;5035573;28;20658;-82
2021/11/16 07:55:26;;;;;;;9.45;7.55;;;;;;;;;;5035673;28;20198;-82
2021/11/16 07:57:55;;;;;;;9.63;8.23;;;;;;;;;;5035960;28;20183;-81
2021/11/16 08:00:27;;;;;;;12.23;10.77;;;;;;;;;;5035776;28;20224;-83
2021/11/16 08:03:02;;;;;;;9.05;8.15;;;;;;;;;;5036293;28;20269;-84
2021/11/16 08:05:36;;;;;;;9.82;8.57;;;;;;;;;;5035561;28;20182;-81
2021/11/16 08:08:20;;;;;;;10.48;8.02;;;;;;;;;;5034502;28;20197;-81
2021/11/16 08:10:51;;;;;;;10.63;8.00;;;;;;;;;;5033382;28;20622;-82
2021/11/16 08:13:27;;;;;;;10.18;8.38;;;;;;;;;;5034148;28;20206;-82
2021/11/16 08:15:56;;;;;;;9.95;8.27;;;;;;;;;;5034112;28;20197;-82
2021/11/16 08:18:24;;;;;;;10.18;7.63;;;;;;;;;;5032796;28;20210;-81
2021/11/16 08:21:01;;;;;;;6.95;6.20;;;;;;;;;;5033343;28;20712;-82
2021/11/16 08:23:28;;;;;;;11.73;9.25;;;;;;;;;;5033938;28;20578;-81
2021/11/16 08:25:57;;;;;;;12.27;9.45;;;;;;;;;;5033953;28;20214;-82
2021/11/16 08:28:26;;;;;;;9.85;7.97;;;;;;;;;;5041256;28;20205;-81
2021/11/16 08:30:54;;;;;;;9.02;7.93;;;;;;;;;;5053912;28;20206;-81
2021/11/16 08:33:22;;;;;;;10.38;8.40;;;;;;;;;;5054316;28;20182;-82
2021/11/16 08:35:51;;;;;;;6.57;5.88;;;;;;;;;;5054608;28;20206;-81
2021/11/16 08:38:18;;;;;;;8.77;7.15;;;;;;;;;;5048015;28;20607;-82
2021/11/16 08:40:46;;;;;;;10.52;8.30;;;;;;;;;;5034248;28;20638;-83
2021/11/16 08:43:16;;;;;;;12.25;7.32;;;;;;;;;;5033701;28;20298;-83
2021/11/16 08:45:50;;;;;;;6.30;5.57;;;;;;;;;;5029281;28;20284;-82
2021/11/16 08:48:20;;;;;;;7.85;7.05;;;;;;;;;;5030564;28;20587;-82
2021/11/16 08:50:51;;;;;;;10.35;8.02;;;;;;;;;;5014566;28;20226;-82
2021/11/16 08:53:28;;;;;;;13.43;9.35;;;;;;;;;;5031223;28;20599;-81
2021/11/16 08:55:56;;;;;;;16.83;11.90;;;;;;;;;;5037788;28;20605;-79
2021/11/16 08:58:28;;;;;;;14.70;12.20;;;;;;;;;;5058064;28;20193;-83
2021/11/16 09:01:00;;;;;;;17.15;13.43;;;;;;;;;;5048964;28;20561;-81
2021/11/16 09:03:30;;;;;;;16.52;12.32;;;;;;;;;;5037362;28;20202;-81
2021/11/16 09:06:00;;;;;;;13.50;10.60;;;;;;;;;;5036889;28;20190;-81
2021/11/16 09:08:33;;;;;;;15.50;13.50;;;;;;;;;;5036942;28;20641;-80
2021/11/16 09:11:06;;;;;;;13.77;10.50;;;;;;;;;;5036092;28;20246;-80
2021/11/16 09:13:35;;;;;;;18.10;14.02;;;;;;;;;;5042875;28;20251;-81
2021/11/16 09:16:08;;;;;;;16.13;12.60;;;;;;;;;;5038049;28;20194;-85
2021/11/16 09:18:39;;;;;;;16.73;12.85;;;;;;;;;;5038357;28;20183;-85
2021/11/16 09:21:10;;;;;;;20.67;15.23;;;;;;;;;;5038410;28;20229;-85
2021/11/16 09:23:41;;;;;;;21.67;15.20;;;;;;;;;;5038743;28;20210;-84
2021/11/16 09:26:30;;;;;;;18.92;13.60;;;;;;;;;;5038607;28;20195;-85
2021/11/16 09:29:02;;;;;;;18.65;11.65;;;;;;;;;;5037931;28;20703;-84
2021/11/16 09:31:45;;;;;;;15.48;10.18;;;;;;;;;;5038710;28;20198;-84
2021/11/16 09:34:29;;;;;;;16.60;11.95;;;;;;;;;;5033342;28;20198;-83
2021/11/16 09:37:21;;;;;;;8.85;7.95;;;;;;;;;;5038112;28;20205;-83
2021/11/16 09:43:35;;;;;;;9.48;7.68;;;;;;;;;;4919643;28;20204;-82
2021/11/16 09:46:08;;;;;;;10.50;7.28;;;;;;;;;;5034026;28;20195;-82
2021/11/16 09:48:39;;;;;;;13.25;8.68;;;;;;;;;;5036132;28;20183;-81
2021/11/16 09:51:20;;;;;;;9.05;8.02;;;;;;;;;;5035306;28;20298;-82
2021/11/16 09:53:48;;;;;;;11.82;9.43;;;;;;;;;;5036787;28;20187;-82
2021/11/16 09:56:24;;;;;;;12.38;10.32;;;;;;;;;;5036419;28;20230;-81
2021/11/16 09:58:52;;;;;;;13.75;9.18;;;;;;;;;;5036396;28;20276;-81
2021/11/16 10:01:30;;;;;;;12.65;9.48;;;;;;;;;;5037072;28;20197;-81
2021/11/16 10:04:16;;;;;;;11.10;9.05;;;;;;;;;;5017092;28;20198;-82
2021/11/16 10:06:44;;;;;;;12.13;9.23;;;;;;;;;;5017105;28;20191;-83
2021/11/16 10:09:13;;;;;;;11.40;8.60;;;;;;;;;;5016958;28;20223;-82
2021/11/16 10:11:44;;;;;;;13.00;10.27;;;;;;;;;;5017535;28;20191;-83
2021/11/16 10:14:16;;;;;;;14.73;10.55;;;;;;;;;;5017671;28;20183;-81
2021/11/16 10:16:44;;;;;;;13.52;10.43;;;;;;;;;;5016484;28;20271;-81
2021/11/16 10:19:13;;;;;;;10.57;7.78;;;;;;;;;;5016377;28;20264;-81
2021/11/16 10:21:42;;;;;;;7.93;7.13;;;;;;;;;;5016227;28;20199;-82
2021/11/16 10:24:31;;;;;;;5.88;5.28;;;;;;;;;;5016599;28;20192;-81
2021/11/16 10:27:06;;;;;;;6.68;6.05;;;;;;;;;;5016514;28;20633;-81
2021/11/16 10:29:33;;;;;;;5.75;5.05;;;;;;;;;;5017268;28;20225;-82
2021/11/16 10:32:19;;;;;;;5.38;4.88;;;;;;;;;;5036951;28;20186;-84
2021/11/16 10:34:48;;;;;;;7.60;6.78;;;;;;;;;;5035996;28;20209;-80
2021/11/16 10:37:16;;;;;;;5.82;5.22;;;;;;;;;;5036429;28;20186;-83
2021/11/16 10:39:44;;;;;;;6.75;6.07;;;;;;;;;;5036918;28;20626;-83
2021/11/16 10:42:17;;;;;;;5.40;4.82;;;;;;;;;;5036876;28;20197;-84
2021/11/16 10:44:59;;;;;;;6.38;5.78;;;;;;;;;;5036494;28;20194;-83
2021/11/16 10:47:35;;;;;;;5.95;5.28;;;;;;;;;;5035810;28;20237;-82
2021/11/16 10:50:11;;;;;;;4.47;4.07;;;;;;;;;;5036047;28;20647;-83
2021/11/16 10:52:41;;;;;;;4.75;4.35;;;;;;;;;;5037015;28;20702;-84
2021/11/16 10:55:10;;;;;;;4.55;4.15;;;;;;;;;;5036360;28;20179;-83
2021/11/16 10:58:03;;;;;;;7.40;6.32;;;;;;;;;;5035578;28;20186;-84
2021/11/16 11:00:34;;;;;;;8.98;7.85;;;;;;;;;;5036460;28;20301;-84
2021/11/16 11:03:20;;;;;;;10.35;7.47;;;;;;;;;;5036505;28;20198;-83
2021/11/16 11:05:50;;;;;;;6.03;4.78;;;;;;;;;;5017145;28;20598;-83
2021/11/16 11:08:49;;;;;;;6.70;5.45;;;;;;;;;;5024386;28;20606;-83
2021/11/16 11:11:22;;;;;;;11.90;6.97;;;;;;;;;;5037461;28;20210;-83
2021/11/16 11:14:02;;;;;;;10.88;7.20;;;;;;;;;;5036740;28;20199;-83
2021/11/16 11:16:31;;;;;;;8.63;6.70;;;;;;;;;;5035503;28;20214;-83
2021/11/16 11:18:58;;;;;;;8.27;5.82;;;;;;;;;;5035577;28;20265;-81
2021/11/16 11:21:42;;;;;;;6.18;4.32;;;;;;;;;;5035554;28;20201;-84
2021/11/16 11:24:19;;;;;;;7.43;6.05;;;;;;;;;;5039702;28;20202;-84
2021/11/16 11:26:54;;;;;;;6.88;6.28;;;;;;;;;;5042842;28;20217;-84
2021/11/16 11:29:31;;;;;;;9.25;7.18;;;;;;;;;;5043406;28;20225;-85
2021/11/16 11:32:15;;;;;;;9.20;7.20;;;;;;;;;;5044513;28;20225;-84
2021/11/16 11:34:52;;;;;;;8.15;6.65;;;;;;;;;;5043640;28;20222;-85
2021/11/16 11:37:25;;;;;;;7.45;5.95;;;;;;;;;;5070176;22;20232;-86
2021/11/16 11:40:02;;;;;;;8.70;6.60;;;;;;;;;;5054981;28;20212;-86
2021/11/16 11:42:33;;;;;;;10.60;8.30;;;;;;;;;;5054929;28;20224;-86
2021/11/16 11:45:10;;;;;;;8.57;6.95;;;;;;;;;;5054296;28;20205;-86
2021/11/16 11:47:42;;;;;;;8.60;6.43;;;;;;;;;;5053295;28;20312;-86
2021/11/16 11:50:31;;;;;;;6.63;5.30;;;;;;;;;;5052079;28;20670;-85
2021/11/16 11:53:02;;;;;;;4.75;3.78;;;;;;;;;;5052735;28;20208;-86
2021/11/16 11:55:33;;;;;;;5.40;4.78;;;;;;;;;;5053977;28;20248;-86
2021/11/16 11:58:02;;;;;;;5.70;4.55;;;;;;;;;;5052138;28;20228;-85
2021/11/16 12:00:32;;;;;;;13.48;9.52;;;;;;;;;;5052922;28;20205;-86
2021/11/16 12:02:59;;;;;;;9.25;6.43;;;;;;;;;;5053628;28;20220;-86
2021/11/16 12:05:28;;;;;;;11.13;7.95;;;;;;;;;;5053499;28;20285;-85
2021/11/16 12:07:55;;;;;;;7.22;5.70;;;;;;;;;;5054286;28;20220;-86
2021/11/16 12:10:25;;;;;;;8.93;6.25;;;;;;;;;;5053766;28;20198;-86
2021/11/16 12:12:55;;;;;;;7.43;5.75;;;;;;;;;;5053617;28;20269;-87
2021/11/16 12:15:27;;;;;;;6.60;5.97;;;;;;;;;;5053270;28;20233;-86
2021/11/16 12:17:56;;;;;;;7.53;5.97;;;;;;;;;;5052343;28;20221;-86
2021/11/16 12:20:49;;;;;;;7.80;6.72;;;;;;;;;;5054841;28;20202;-86
2021/11/16 12:23:19;;;;;;;6.72;5.55;;;;;;;;;;5048376;28;20587;-86
2021/11/16 12:25:49;;;;;;;7.93;6.60;;;;;;;;;;5053749;28;20675;-86
2021/11/16 12:28:29;;;;;;;9.25;7.80;;;;;;;;;;5055425;28;20218;-86
2021/11/16 12:30:58;;;;;;;10.82;7.93;;;;;;;;;;5061208;28;20224;-86
2021/11/16 12:33:44;;;;;;;6.43;5.40;;;;;;;;;;5062501;28;20264;-87
2021/11/16 12:36:14;;;;;;;6.65;5.72;;;;;;;;;;5060032;28;20267;-86
2021/11/16 12:38:44;;;;;;;9.05;7.13;;;;;;;;;;5060654;28;20295;-86
2021/11/16 12:41:38;;;;;;;10.10;7.25;;;;;;;;;;5061182;28;20284;-86
2021/11/16 12:44:07;;;;;;;8.18;6.90;;;;;;;;;;5057608;28;20236;-87
2021/11/16 12:46:37;;;;;;;10.60;5.85;;;;;;;;;;5061079;28;20622;-86
2021/11/16 12:49:06;;;;;;;5.60;5.10;;;;;;;;;;5059738;28;20194;-88
2021/11/16 12:51:36;;;;;;;6.85;5.82;;;;;;;;;;5060896;28;20272;-88
2021/11/16 12:54:07;;;;;;;9.60;7.25;;;;;;;;;;5061129;28;20222;-86
2021/11/16 12:57:14;;;;;;;8.60;6.78;;;;;;;;;;5061188;28;20685;-88
2021/11/16 13:00:09;;;;;;;9.07;7.22;;;;;;;;;;5060016;28;20205;-86
2021/11/16 13:02:51;;;;;;;9.13;8.18;;;;;;;;;;5057675;28;20652;-86
2021/11/16 13:05:41;;;;;;;9.85;7.15;;;;;;;;;;5057645;28;20204;-85
2021/11/16 13:08:09;;;;;;;7.45;6.70;;;;;;;;;;5056964;28;20308;-85
2021/11/16 13:10:48;;;;;;;6.53;5.57;;;;;;;;;;5057408;28;20269;-86
2021/11/16 13:13:21;;;;;;;7.95;6.82;;;;;;;;;;5058133;28;20221;-85
2021/11/16 13:15:52;;;;;;;8.15;6.20;;;;;;;;;;5057585;28;20209;-86
2021/11/16 13:18:33;;;;;;;8.25;6.95;;;;;;;;;;5057807;28;20224;-87
2021/11/16 13:21:22;;;;;;;5.65;4.95;;;;;;;;;;5058163;28;20233;-86
2021/11/16 13:23:57;;;;;;;6.63;4.95;;;;;;;;;;5058335;28;20198;-86
2021/11/16 13:26:33;;;;;;;6.10;5.38;;;;;;;;;;5057658;28;20560;-87
2021/11/16 13:29:24;;;;;;;8.20;6.22;;;;;;;;;;5058776;28;20227;-86
2021/11/16 13:31:59;;;;;;;6.43;5.75;;;;;;;;;;5054367;28;20226;-86
2021/11/16 13:34:38;;;;;;;6.68;5.07;;;;;;;;;;5056158;28;20216;-85
2021/11/16 13:37:28;;;;;;;4.07;3.67;;;;;;;;;;5056828;28;20221;-86
2021/11/16 13:40:14;;;;;;;4.50;4.10;;;;;;;;;;5052224;28;20197;-86
2021/11/16 13:42:42;;;;;;;4.82;4.20;;;;;;;;;;5056427;28;20285;-85
2021/11/16 13:45:13;;;;;;;6.22;4.30;;;;;;;;;;5057557;28;20248;-85
2021/11/16 13:47:43;;;;;;;6.28;4.72;;;;;;;;;;5056053;28;20225;-85
2021/11/16 13:50:14;;;;;;;5.05;4.55;;;;;;;;;;5055865;28;20206;-86
2021/11/16 13:52:43;;;;;;;6.45;4.78;;;;;;;;;;5055524;28;20225;-86
2021/11/16 13:55:14;;;;;;;5.28;4.78;;;;;;;;;;5053407;28;20209;-86
2021/11/16 13:57:44;;;;;;;5.38;4.35;;;;;;;;;;5054573;28;20684;-89
2021/11/16 14:00:18;;;;;;;4.13;3.72;;;;;;;;;;5054632;28;20194;-89
2021/11/16 14:02:56;;;;;;;5.43;4.38;;;;;;;;;;5054521;28;20201;-89
2021/11/16 14:05:28;;;;;;;9.40;5.93;;;;;;;;;;5055077;28;20198;-89
2021/11/16 14:08:16;;;;;;;7.82;5.72;;;;;;;;;;5054822;28;20671;-89
2021/11/16 14:10:45;;;;;;;5.82;4.95;;;;;;;;;;5053564;28;20632;-89
2021/11/16 14:13:18;;;;;;;4.68;4.10;;;;;;;;;;5054578;28;20225;-90
2021/11/16 14:15:57;;;;;;;9.07;5.85;;;;;;;;;;5055168;28;20212;-88
2021/11/16 14:18:37;;;;;;;7.45;5.93;;;;;;;;;;5055247;28;20321;-89
2021/11/16 14:21:10;;;;;;;4.13;3.72;;;;;;;;;;5054791;28;20206;-90
2021/11/16 14:24:02;;;;;;;4.88;4.22;;;;;;;;;;5054447;28;20589;-89
2021/11/16 14:26:34;;;;;;;9.25;5.88;;;;;;;;;;5055326;28;20632;-89
2021/11/16 14:29:17;;;;;;;5.75;5.15;;;;;;;;;;5055049;28;20190;-89
2021/11/16 14:31:47;;;;;;;5.65;4.25;;;;;;;;;;5054636;28;20265;-89
2021/11/16 14:34:41;;;;;;;4.03;3.63;;;;;;;;;;5055018;28;20266;-89
2021/11/16 14:37:08;;;;;;;5.30;4.63;;;;;;;;;;5052932;28;20231;-89
2021/11/16 14:39:43;;;;;;;3.92;3.33;;;;;;;;;;5054950;28;20216;-90
2021/11/16 14:42:20;;;;;;;4.65;4.00;;;;;;;;;;5054717;28;20197;-91
2021/11/16 14:44:51;;;;;;;4.38;3.95;;;;;;;;;;5054710;28;20560;-90
2021/11/16 14:47:30;;;;;;;5.45;4.03;;;;;;;;;;5054842;28;20300;-90
2021/11/16 14:50:02;;;;;;;4.55;3.72;;;;;;;;;;5053865;28;20289;-90
2021/11/16 14:52:42;;;;;;;4.07;3.75;;;;;;;;;;5055620;28;20267;-90
2021/11/16 14:55:44;;;;;;;4.75;4.18;;;;;;;;;;5055698;28;20274;-88
2021/11/16 14:58:23;;;;;;;3.72;3.42;;;;;;;;;;5054340;28;20590;-89
2021/11/16 15:00:52;;;;;;;3.83;3.38;;;;;;;;;;5054559;28;20209;-90
2021/11/16 15:03:22;;;;;;;3.88;3.47;;;;;;;;;;5054378;28;20198;-90
2021/11/16 15:05:53;;;;;;;5.00;3.13;;;;;;;;;;5053170;28;20640;-88
2021/11/16 15:08:24;;;;;;;5.18;4.28;;;;;;;;;;5053227;28;20221;-90